createdAt,value
2023-05-21T00:01:34.888Z,1.50
2023-05-21T00:06:36.670Z,1.63
2023-05-21T00:11:38.413Z,1.90
2023-05-21T00:16:40.111Z,1.85
2023-05-21T00:21:41.849Z,1.45
2023-05-21T00:26:43.448Z,1.80
2023-05-21T00:31:45.100Z,1.70
2023-05-21T00:36:46.808Z,1.90
2023-05-21T00:41:48.618Z,1.77
2023-05-21T00:46:53.625Z,1.55
2023-05-21T00:51:56.123Z,1.73
2023-05-21T00:56:58.686Z,1.90
2023-05-21T01:02:04.067Z,1.67
2023-05-21T01:07:06.321Z,1.60
2023-05-21T01:12:08.925Z,2.60
2023-05-21T01:17:10.803Z,2.13
2023-05-21T01:22:14.307Z,1.65
2023-05-21T01:27:15.984Z,1.73
2023-05-21T01:32:47.933Z,2.33
2023-05-21T01:37:52.625Z,1.85
2023-05-21T01:42:54.397Z,1.55
2023-05-21T01:47:56.390Z,1.38
2023-05-21T01:52:58.606Z,2.03
2023-05-21T01:58:02.242Z,1.92
2023-05-21T02:03:04.423Z,1.50
2023-05-21T02:08:08.395Z,1.75
2023-05-21T02:13:10.083Z,1.38
2023-05-21T02:18:16.540Z,1.52
2023-05-21T02:23:18.404Z,1.80
2023-05-21T02:28:21.272Z,1.42
2023-05-21T02:33:23.094Z,1.70
2023-05-21T02:38:25.810Z,1.52
2023-05-21T02:43:27.412Z,1.60
2023-05-21T02:48:28.961Z,1.77
2023-05-21T02:53:30.535Z,1.48
2023-05-21T02:58:33.306Z,1.30
2023-05-21T03:03:35.160Z,1.95
2023-05-21T03:08:37.879Z,1.42
2023-05-21T03:13:39.582Z,1.52
2023-05-21T03:18:41.413Z,1.45
2023-05-21T03:23:43.147Z,1.55
2023-05-21T03:28:44.829Z,0.95
2023-05-21T03:33:46.417Z,0.88
2023-05-21T03:39:00.211Z,1.75
2023-05-21T03:44:02.029Z,1.80
2023-05-21T03:49:11.443Z,0.97
2023-05-21T03:54:14.823Z,1.30
2023-05-21T03:59:16.841Z,1.27
2023-05-21T04:04:19.333Z,1.30
2023-05-21T04:09:21.543Z,1.85
2023-05-21T04:14:23.649Z,1.13
2023-05-21T04:19:27.139Z,1.20
2023-05-21T04:24:29.018Z,1.08
2023-05-21T04:29:59.994Z,1.00
2023-05-21T04:35:02.079Z,0.85
2023-05-21T04:40:04.207Z,1.65
2023-05-21T04:45:06.477Z,1.15
2023-05-21T04:50:11.985Z,1.60
2023-05-21T04:55:13.613Z,1.08
2023-05-21T05:00:16.384Z,1.15
2023-05-21T05:05:20.060Z,1.15
2023-05-21T05:10:22.320Z,1.27
2023-05-21T05:15:24.243Z,1.40
2023-05-21T05:20:26.785Z,1.45
2023-05-21T05:25:28.411Z,1.00
2023-05-21T05:30:30.686Z,1.42
2023-05-21T05:35:45.352Z,1.10
2023-05-21T05:40:46.992Z,1.10
2023-05-21T05:45:48.954Z,1.17
2023-05-21T05:50:54.479Z,1.23
2023-05-21T05:55:56.849Z,1.40
2023-05-21T06:00:58.959Z,1.13
2023-05-21T06:06:02.312Z,1.70
2023-05-21T06:11:05.385Z,1.38
2023-05-21T06:16:07.633Z,1.10
2023-05-21T06:21:10.589Z,1.05
2023-05-21T06:26:13.464Z,1.58
2023-05-21T06:31:16.165Z,1.20
2023-05-21T06:36:18.795Z,1.88
2023-05-21T06:41:21.063Z,1.15
2023-05-21T06:46:29.753Z,1.40
2023-05-21T06:51:32.335Z,1.33
2023-05-21T06:56:34.407Z,1.67
2023-05-21T07:01:36.388Z,1.27
2023-05-21T07:06:38.860Z,1.65
2023-05-21T07:11:40.757Z,1.40
2023-05-21T07:16:44.265Z,1.98
2023-05-21T07:21:46.497Z,1.67
2023-05-21T07:26:48.362Z,1.63
2023-05-21T07:31:51.513Z,1.70
2023-05-21T07:36:53.184Z,1.80
2023-05-21T07:41:54.848Z,1.48
2023-05-21T07:46:58.092Z,1.60
2023-05-21T07:51:59.858Z,1.85
2023-05-21T07:57:05.661Z,2.00
2023-05-21T08:02:44.030Z,1.98
2023-05-21T08:07:48.386Z,1.98
2023-05-21T08:12:50.996Z,2.30
2023-05-21T08:17:53.040Z,2.20
2023-05-21T08:22:54.860Z,1.55
2023-05-21T08:27:58.187Z,2.08
2023-05-21T08:33:00.179Z,2.55
2023-05-21T08:38:03.877Z,1.98
2023-05-21T08:43:19.320Z,2.05
2023-05-21T08:48:25.154Z,2.70
2023-05-21T08:53:29.676Z,2.00
2023-05-21T08:58:33.709Z,2.03
2023-05-21T09:03:39.375Z,2.47
2023-05-21T09:08:48.857Z,2.50
2023-05-21T09:19:23.159Z,2.70
2023-05-21T09:24:30.214Z,3.13
2023-05-21T09:29:34.494Z,2.97
2023-05-21T09:34:37.108Z,2.95
2023-05-21T09:44:44.973Z,3.53
2023-05-21T09:49:46.708Z,3.70
2023-05-21T09:54:48.290Z,3.63
2023-05-21T09:59:50.606Z,3.00
2023-05-21T10:04:54.251Z,4.55
2023-05-21T10:09:57.495Z,4.15
2023-05-21T10:15:04.646Z,4.43
2023-05-21T10:20:10.626Z,4.90
2023-05-21T10:25:13.221Z,3.72
2023-05-21T10:30:15.738Z,4.72
2023-05-21T10:35:18.120Z,4.63
2023-05-21T10:40:20.500Z,4.45
2023-05-21T10:45:40.574Z,5.53
2023-05-21T10:51:04.861Z,6.07
2023-05-21T10:56:31.334Z,5.78
2023-05-21T11:01:39.389Z,5.50
2023-05-21T11:06:47.450Z,5.25
2023-05-21T11:11:53.923Z,5.85
2023-05-21T11:16:56.932Z,5.18
2023-05-21T11:21:59.068Z,6.57
2023-05-21T11:27:02.378Z,5.32
2023-05-21T11:32:05.715Z,5.68
2023-05-21T11:37:30.042Z,5.22
2023-05-21T11:42:38.688Z,5.18
2023-05-21T11:47:40.311Z,6.50
2023-05-21T11:52:42.337Z,5.07
2023-05-21T11:57:44.830Z,5.82
2023-05-21T12:02:53.327Z,5.90
2023-05-21T12:07:56.461Z,4.50
2023-05-21T12:12:58.251Z,5.53
2023-05-21T12:18:01.211Z,5.35
2023-05-21T12:23:03.012Z,5.00
2023-05-21T12:28:05.355Z,5.82
2023-05-21T12:33:07.089Z,4.75
2023-05-21T12:38:09.713Z,4.65
2023-05-21T12:43:11.389Z,5.10
2023-05-21T12:48:13.236Z,4.97
2023-05-21T12:53:14.777Z,4.95
2023-05-21T12:58:17.130Z,5.68
2023-05-21T13:03:19.093Z,5.50
2023-05-21T13:08:20.739Z,4.93
2023-05-21T13:13:22.319Z,5.63
2023-05-21T13:18:24.039Z,5.57
2023-05-21T13:23:25.868Z,5.10
2023-05-21T13:28:27.486Z,4.78
2023-05-21T13:33:29.347Z,6.18
2023-05-21T13:38:31.153Z,4.43
2023-05-21T13:43:33.172Z,5.20
2023-05-21T13:48:34.822Z,4.70
2023-05-21T13:53:36.439Z,5.07
2023-05-21T13:58:40.585Z,4.72
2023-05-21T14:03:42.350Z,4.43
2023-05-21T14:08:43.900Z,4.80
2023-05-21T14:13:46.020Z,5.40
2023-05-21T14:18:47.643Z,4.53
2023-05-21T14:23:50.052Z,4.55
2023-05-21T14:28:51.968Z,5.47
2023-05-21T14:33:53.929Z,4.18
2023-05-21T14:38:55.574Z,4.88
2023-05-21T14:43:57.173Z,4.65
2023-05-21T14:48:59.434Z,4.80
2023-05-21T14:54:01.078Z,4.47
2023-05-21T14:59:02.796Z,4.53
2023-05-21T15:04:04.708Z,4.72
2023-05-21T15:09:06.520Z,4.45
2023-05-21T15:14:08.113Z,4.70
2023-05-21T15:19:09.688Z,4.55
2023-05-21T15:24:11.611Z,4.72
2023-05-21T15:29:13.200Z,4.40
2023-05-21T15:34:15.196Z,4.57
2023-05-21T15:39:17.108Z,5.05
2023-05-21T15:44:18.860Z,4.75
2023-05-21T15:49:20.791Z,3.95
2023-05-21T15:54:22.444Z,4.90
2023-05-21T15:59:27.545Z,4.60
2023-05-21T16:04:29.155Z,5.05
2023-05-21T16:09:30.954Z,4.65
2023-05-21T16:14:32.836Z,4.07
2023-05-21T16:19:34.490Z,4.45
2023-05-21T16:24:36.173Z,4.20
2023-05-21T16:29:40.733Z,4.85
2023-05-21T16:34:42.685Z,5.05
2023-05-21T16:39:44.789Z,5.00
2023-05-21T16:44:46.679Z,4.70
2023-05-21T16:49:48.200Z,4.75
2023-05-21T16:54:49.982Z,5.00
2023-05-21T16:59:51.552Z,4.93
2023-05-21T17:04:53.102Z,4.65
2023-05-21T17:09:54.668Z,4.82
2023-05-21T17:14:56.293Z,5.13
2023-05-21T17:19:57.959Z,4.03
2023-05-21T17:24:59.732Z,4.70
2023-05-21T17:30:01.500Z,4.57
2023-05-21T17:35:03.313Z,4.53
2023-05-21T17:40:05.787Z,4.53
2023-05-21T17:45:07.701Z,4.50
2023-05-21T17:50:09.618Z,4.53
2023-05-21T17:55:11.256Z,4.28
2023-05-21T18:00:13.167Z,4.22
2023-05-21T18:05:14.720Z,4.55
2023-05-21T18:10:16.395Z,5.30
2023-05-21T18:15:18.086Z,4.90
2023-05-21T18:20:19.736Z,4.70
2023-05-21T18:25:21.485Z,4.90
2023-05-21T18:30:23.075Z,4.63
2023-05-21T18:35:24.779Z,4.80
2023-05-21T18:40:30.413Z,4.80
2023-05-21T18:45:33.117Z,4.75
2023-05-21T18:50:37.036Z,4.53
2023-05-21T18:55:38.918Z,4.82
2023-05-21T19:00:42.247Z,5.10
2023-05-21T19:05:43.968Z,5.05
2023-05-21T19:15:48.379Z,5.47
2023-05-21T19:20:50.050Z,5.20
2023-05-21T19:25:52.001Z,4.50
2023-05-21T19:30:53.587Z,4.72
2023-05-21T19:35:55.165Z,4.80
2023-05-21T19:40:56.902Z,5.53
2023-05-21T19:45:58.469Z,4.95
2023-05-21T19:51:00.158Z,4.93
2023-05-21T19:56:02.066Z,4.53
2023-05-21T20:01:03.787Z,4.90
2023-05-21T20:06:05.662Z,5.63
2023-05-21T20:11:07.243Z,5.93
2023-05-21T20:16:10.289Z,4.63
2023-05-21T20:21:11.868Z,5.72
2023-05-21T20:26:14.735Z,4.68
2023-05-21T20:31:16.353Z,5.32
2023-05-21T20:36:18.446Z,4.82
2023-05-21T20:41:20.234Z,5.47
2023-05-21T20:46:21.927Z,4.60
2023-05-21T20:51:24.066Z,5.43
2023-05-21T20:56:37.449Z,4.80
2023-05-21T21:01:43.453Z,5.25
2023-05-21T21:06:46.485Z,4.90
2023-05-21T21:11:48.471Z,4.70
2023-05-21T21:16:51.717Z,5.18
2023-05-21T21:21:53.350Z,5.43
2023-05-21T21:26:54.960Z,4.95
2023-05-21T21:31:57.247Z,4.63
2023-05-21T21:36:58.851Z,4.72
2023-05-21T21:42:00.533Z,4.28
2023-05-21T21:47:02.117Z,5.05
2023-05-21T21:52:03.961Z,5.20
2023-05-21T21:57:05.852Z,4.90
2023-05-21T22:02:07.407Z,4.55
2023-05-21T22:07:10.694Z,4.93
2023-05-21T22:12:13.101Z,5.22
2023-05-21T22:17:17.809Z,4.93
2023-05-21T22:22:19.642Z,5.28
2023-05-21T22:27:21.310Z,4.97
2023-05-21T22:32:22.974Z,4.63
2023-05-21T22:37:26.073Z,4.82
2023-05-21T22:42:27.820Z,5.90
2023-05-21T22:47:29.378Z,4.95
2023-05-21T22:52:31.862Z,4.85
2023-05-21T22:57:33.488Z,4.68
2023-05-21T23:02:35.317Z,4.63
2023-05-21T23:07:36.856Z,4.97
2023-05-21T23:12:38.628Z,4.68
2023-05-21T23:17:40.398Z,5.07
2023-05-21T23:22:42.057Z,4.57
2023-05-21T23:27:43.792Z,5.03
2023-05-21T23:32:45.625Z,4.20
2023-05-21T23:37:47.518Z,4.78
2023-05-21T23:42:49.160Z,4.75
2023-05-21T23:47:52.097Z,5.35
2023-05-21T23:52:53.913Z,5.90
2023-05-21T23:57:55.612Z,5.18
